createdAt,value
2023-04-09T00:00:17.692Z,3.20
2023-04-09T00:02:44.493Z,3.25
2023-04-09T00:05:11.313Z,3.38
2023-04-09T00:07:38.017Z,3.41
2023-04-09T00:10:05.284Z,3.50
2023-04-09T00:12:31.934Z,3.55
2023-04-09T00:14:58.601Z,3.62
2023-04-09T00:17:25.279Z,3.51
2023-04-09T00:19:52.221Z,3.43
2023-04-09T00:22:19.092Z,3.52
2023-04-09T00:24:46.180Z,3.55
2023-04-09T00:27:12.882Z,3.65
2023-04-09T00:29:39.546Z,3.76
2023-04-09T00:32:06.543Z,3.79
2023-04-09T00:34:33.397Z,3.81
2023-04-09T00:37:00.072Z,3.83
2023-04-09T00:39:26.774Z,3.86
2023-04-09T00:42:02.943Z,3.89
2023-04-09T00:44:29.668Z,3.78
2023-04-09T00:46:58.685Z,3.69
2023-04-09T00:49:26.556Z,3.69
2023-04-09T00:51:53.877Z,3.78
2023-04-09T00:54:20.736Z,3.85
2023-04-09T00:56:47.822Z,3.88
2023-04-09T00:59:15.410Z,4.01
2023-04-09T01:01:42.186Z,4.13
2023-04-09T01:04:09.261Z,4.17
2023-04-09T01:06:38.788Z,4.20
2023-04-09T01:09:29.907Z,4.25
2023-04-09T01:12:08.159Z,4.32
2023-04-09T01:14:44.198Z,4.28
2023-04-09T01:17:17.608Z,4.30
2023-04-09T01:19:53.920Z,4.35
2023-04-09T01:22:32.921Z,4.38
2023-04-09T01:25:30.646Z,4.51
2023-04-09T01:28:16.871Z,4.55
2023-04-09T01:30:48.047Z,4.62
2023-04-09T01:33:17.667Z,4.58
2023-04-09T01:35:47.048Z,4.63
2023-04-09T01:38:15.577Z,4.71
2023-04-09T01:40:42.945Z,4.73
2023-04-09T01:43:11.331Z,4.72
2023-04-09T01:45:39.024Z,4.68
2023-04-09T01:48:06.407Z,4.72
2023-04-09T01:50:34.156Z,4.79
2023-04-09T01:53:01.842Z,4.87
2023-04-09T01:55:28.547Z,4.94
2023-04-09T01:57:55.245Z,4.99
2023-04-09T02:00:22.229Z,5.01
2023-04-09T02:03:10.738Z,5.01
2023-04-09T02:06:03.714Z,5.00
2023-04-09T02:08:31.135Z,5.00
2023-04-09T02:11:00.627Z,4.99
2023-04-09T02:13:29.517Z,5.03
2023-04-09T02:15:57.284Z,5.09
2023-04-09T02:18:33.131Z,5.13
2023-04-09T02:21:00.278Z,5.18
2023-04-09T02:23:29.774Z,5.19
2023-04-09T02:25:56.548Z,5.21
2023-04-09T02:28:23.351Z,5.21
2023-04-09T02:30:50.028Z,5.23
2023-04-09T02:33:16.764Z,5.22
2023-04-09T02:35:43.465Z,5.20
2023-04-09T02:38:13.974Z,5.18
2023-04-09T02:40:43.948Z,5.21
2023-04-09T02:43:10.903Z,5.24
2023-04-09T02:45:37.600Z,5.28
2023-04-09T02:48:04.547Z,5.28
2023-04-09T02:50:31.299Z,5.26
2023-04-09T02:52:58.009Z,5.26
2023-04-09T02:55:24.657Z,5.26
2023-04-09T02:57:51.383Z,5.30
2023-04-09T03:00:18.148Z,5.25
2023-04-09T03:02:45.149Z,5.25
2023-04-09T03:05:11.955Z,5.21
2023-04-09T03:07:38.646Z,5.18
2023-04-09T03:10:05.699Z,5.16
2023-04-09T03:12:32.464Z,5.15
2023-04-09T03:14:59.234Z,5.20
2023-04-09T03:17:27.385Z,5.17
2023-04-09T03:19:54.176Z,5.14
2023-04-09T03:22:20.988Z,5.17
2023-04-09T03:24:47.660Z,5.17
2023-04-09T03:27:14.493Z,5.14
2023-04-09T03:29:41.154Z,5.17
2023-04-09T03:32:07.855Z,5.19
2023-04-09T03:34:34.762Z,5.20
2023-04-09T03:37:01.656Z,5.18
2023-04-09T03:39:30.927Z,5.21
2023-04-09T03:41:58.997Z,5.28
2023-04-09T03:44:25.795Z,5.31
2023-04-09T03:46:52.715Z,5.35
2023-04-09T03:49:19.765Z,5.32
2023-04-09T03:51:46.420Z,5.29
2023-04-09T03:54:13.238Z,5.35
2023-04-09T03:56:40.028Z,5.32
2023-04-09T03:59:07.076Z,5.38
2023-04-09T04:01:34.929Z,5.35
2023-04-09T04:04:02.014Z,5.39
2023-04-09T04:06:28.810Z,5.38
2023-04-09T04:08:55.633Z,5.38
2023-04-09T04:11:22.456Z,5.37
2023-04-09T04:13:49.114Z,5.40
2023-04-09T04:16:16.085Z,5.45
2023-04-09T04:18:42.770Z,5.43
2023-04-09T04:21:14.629Z,5.40
2023-04-09T04:23:41.493Z,5.51
2023-04-09T04:26:11.724Z,5.46
2023-04-09T04:28:39.266Z,5.45
2023-04-09T04:31:10.724Z,5.50
2023-04-09T04:33:38.858Z,5.49
2023-04-09T04:36:13.527Z,5.50
2023-04-09T04:38:43.532Z,5.50
2023-04-09T04:41:11.180Z,5.67
2023-04-09T04:43:37.922Z,5.65
2023-04-09T04:46:06.207Z,5.59
2023-04-09T04:48:33.136Z,5.55
2023-04-09T04:51:01.219Z,5.56
2023-04-09T04:53:27.962Z,5.66
2023-04-09T04:55:54.984Z,5.71
2023-04-09T04:58:21.985Z,5.96
2023-04-09T05:00:48.893Z,5.86
2023-04-09T05:03:15.812Z,5.84
2023-04-09T05:05:42.711Z,5.83
2023-04-09T05:08:09.416Z,5.83
2023-04-09T05:10:36.229Z,5.79
2023-04-09T05:13:02.964Z,5.82
2023-04-09T05:15:29.775Z,5.84
2023-04-09T05:17:56.571Z,5.89
2023-04-09T05:20:23.452Z,6.01
2023-04-09T05:22:50.541Z,6.15
2023-04-09T05:25:17.514Z,6.09
2023-04-09T05:27:44.250Z,6.15
2023-04-09T05:30:11.193Z,6.17
2023-04-09T05:32:38.353Z,6.19
2023-04-09T05:35:05.658Z,6.22
2023-04-09T05:37:32.470Z,6.22
2023-04-09T05:39:59.230Z,6.36
2023-04-09T05:42:46.008Z,6.39
2023-04-09T05:45:12.738Z,6.35
2023-04-09T05:47:39.577Z,6.45
2023-04-09T05:50:06.976Z,6.56
2023-04-09T05:52:33.896Z,6.67
2023-04-09T05:55:01.046Z,6.59
2023-04-09T05:57:30.299Z,6.61
2023-04-09T05:59:57.215Z,6.81
2023-04-09T06:02:25.252Z,6.92
2023-04-09T06:04:52.182Z,6.68
2023-04-09T06:07:19.069Z,6.74
2023-04-09T06:09:46.965Z,6.72
2023-04-09T06:12:13.661Z,6.86
2023-04-09T06:14:40.517Z,6.77
2023-04-09T06:17:07.445Z,6.91
2023-04-09T06:19:34.317Z,7.03
2023-04-09T06:22:01.136Z,6.94
2023-04-09T06:24:27.955Z,7.22
2023-04-09T06:26:54.718Z,7.31
2023-04-09T06:29:24.189Z,7.08
2023-04-09T06:31:51.158Z,7.28
2023-04-09T06:34:17.897Z,7.22
2023-04-09T06:36:44.735Z,7.06
2023-04-09T06:39:11.651Z,7.11
2023-04-09T06:41:38.484Z,7.20
2023-04-09T06:44:05.387Z,7.20
2023-04-09T06:46:32.380Z,7.61
2023-04-09T06:48:59.204Z,7.59
2023-04-09T06:51:25.998Z,7.51
2023-04-09T06:53:52.923Z,7.62
2023-04-09T06:56:19.838Z,7.78
2023-04-09T06:58:47.269Z,7.76
2023-04-09T07:01:17.262Z,7.70
2023-04-09T07:03:44.227Z,7.85
2023-04-09T07:06:11.059Z,7.80
2023-04-09T07:08:37.885Z,7.73
2023-04-09T07:11:04.733Z,7.84
2023-04-09T07:13:33.233Z,7.96
2023-04-09T07:16:03.469Z,7.93
2023-04-09T07:18:31.190Z,8.02
2023-04-09T07:20:57.943Z,7.94
2023-04-09T07:23:24.714Z,8.34
2023-04-09T07:25:51.657Z,8.51
2023-04-09T07:28:18.392Z,8.50
2023-04-09T07:30:48.450Z,8.63
2023-04-09T07:33:15.470Z,8.56
2023-04-09T07:35:42.352Z,8.71
2023-04-09T07:38:09.172Z,8.80
2023-04-09T07:40:36.902Z,8.83
2023-04-09T07:43:04.759Z,8.92
2023-04-09T07:45:31.648Z,9.13
2023-04-09T07:47:58.557Z,9.06
2023-04-09T07:50:26.019Z,9.37
2023-04-09T07:52:52.802Z,9.34
2023-04-09T07:55:20.268Z,9.40
2023-04-09T07:57:48.261Z,9.35
2023-04-09T08:00:15.666Z,9.28
2023-04-09T08:02:42.514Z,9.20
2023-04-09T08:05:10.049Z,9.90
2023-04-09T08:07:36.948Z,9.71
2023-04-09T08:10:04.066Z,9.73
2023-04-09T08:12:30.773Z,9.72
2023-04-09T08:14:57.502Z,10.03
2023-04-09T08:17:24.750Z,9.82
2023-04-09T08:19:51.724Z,10.19
2023-04-09T08:22:18.461Z,10.27
2023-04-09T08:24:45.148Z,10.21
2023-04-09T08:27:12.341Z,10.47
2023-04-09T08:29:40.593Z,10.52
2023-04-09T08:32:08.208Z,10.66
2023-04-09T08:34:34.980Z,10.47
2023-04-09T08:37:02.137Z,10.39
2023-04-09T08:39:28.959Z,10.33
2023-04-09T08:42:00.105Z,10.59
2023-04-09T08:44:27.234Z,10.43
2023-04-09T08:46:54.368Z,10.54
2023-04-09T08:49:21.780Z,10.30
2023-04-09T08:51:49.295Z,10.27
2023-04-09T08:54:19.961Z,10.70
2023-04-09T08:56:47.201Z,10.86
2023-04-09T08:59:20.958Z,10.74
2023-04-09T09:01:52.836Z,11.28
2023-04-09T09:04:19.859Z,11.26
2023-04-09T09:06:46.681Z,11.39
2023-04-09T09:09:17.591Z,11.17
2023-04-09T09:11:46.122Z,11.15
2023-04-09T09:14:15.505Z,11.25
2023-04-09T09:16:44.567Z,11.26
2023-04-09T09:19:26.845Z,11.47
2023-04-09T09:22:02.052Z,11.48
2023-04-09T09:24:29.655Z,12.03
2023-04-09T09:26:57.474Z,12.04
2023-04-09T09:29:24.763Z,11.94
2023-04-09T09:31:56.717Z,11.85
2023-04-09T09:34:24.891Z,11.90
2023-04-09T09:36:51.616Z,11.96
2023-04-09T09:39:18.448Z,12.21
2023-04-09T09:41:47.344Z,11.94
2023-04-09T09:44:31.926Z,12.10
2023-04-09T09:46:59.348Z,11.71
2023-04-09T09:49:26.100Z,11.44
2023-04-09T09:51:57.573Z,11.37
2023-04-09T09:54:28.191Z,11.70
2023-04-09T09:57:01.059Z,12.06
2023-04-09T09:59:34.489Z,12.42
2023-04-09T10:02:05.823Z,12.05
2023-04-09T10:04:36.591Z,12.39
2023-04-09T10:07:07.470Z,12.01
2023-04-09T10:09:37.774Z,12.07
2023-04-09T10:12:06.985Z,11.51
2023-04-09T10:14:35.994Z,12.04
2023-04-09T10:17:04.124Z,12.30
2023-04-09T10:19:35.753Z,12.41
2023-04-09T10:22:13.840Z,12.17
2023-04-09T10:24:41.280Z,12.09
2023-04-09T10:27:15.726Z,11.60
2023-04-09T10:29:48.290Z,12.05
2023-04-09T10:32:23.922Z,12.25
2023-04-09T10:34:51.065Z,12.05
2023-04-09T10:37:28.702Z,12.33
2023-04-09T10:39:57.905Z,12.44
2023-04-09T10:42:38.903Z,12.29
2023-04-09T10:45:14.705Z,12.10
2023-04-09T10:47:43.846Z,12.50
2023-04-09T10:50:24.095Z,12.57
2023-04-09T10:53:00.223Z,12.90
2023-04-09T10:55:38.218Z,12.83
2023-04-09T10:58:07.187Z,12.57
2023-04-09T11:00:40.025Z,12.83
2023-04-09T11:03:19.200Z,13.28
2023-04-09T11:05:51.436Z,13.78
2023-04-09T11:08:18.654Z,13.41
2023-04-09T11:10:48.659Z,13.64
2023-04-09T11:13:19.976Z,13.35
2023-04-09T11:15:46.744Z,13.64
2023-04-09T11:18:27.140Z,13.70
2023-04-09T11:20:58.145Z,13.72
2023-04-09T11:23:25.863Z,14.01
2023-04-09T11:25:54.187Z,13.89
2023-04-09T11:28:21.493Z,13.93
2023-04-09T11:30:51.418Z,14.14
2023-04-09T11:33:20.085Z,14.24
2023-04-09T11:35:48.071Z,14.17
2023-04-09T11:38:14.826Z,14.46
2023-04-09T11:40:48.079Z,14.42
2023-04-09T11:43:16.729Z,14.26
2023-04-09T11:45:44.360Z,14.68
2023-04-09T11:48:12.211Z,14.60
2023-04-09T11:50:39.198Z,14.80
2023-04-09T11:53:23.028Z,14.91
2023-04-09T11:55:51.698Z,15.32
2023-04-09T11:58:18.721Z,15.12
2023-04-09T12:00:45.786Z,14.97
2023-04-09T12:03:12.991Z,15.50
2023-04-09T12:05:50.694Z,15.87
2023-04-09T12:08:23.624Z,15.60
2023-04-09T12:10:53.236Z,15.86
2023-04-09T12:13:20.592Z,15.66
2023-04-09T12:15:49.619Z,15.77
2023-04-09T12:18:16.471Z,15.93
2023-04-09T12:20:44.595Z,15.93
2023-04-09T12:23:12.842Z,15.37
2023-04-09T12:25:41.941Z,15.55
2023-04-09T12:28:11.337Z,15.49
2023-04-09T12:30:38.284Z,15.25
2023-04-09T12:33:05.947Z,14.95
2023-04-09T12:35:34.596Z,14.81
2023-04-09T12:38:01.667Z,14.96
2023-04-09T12:40:28.406Z,15.22
2023-04-09T12:42:55.456Z,15.57
2023-04-09T12:45:23.140Z,16.01
2023-04-09T12:47:50.083Z,16.04
2023-04-09T12:50:17.178Z,15.39
2023-04-09T12:52:44.385Z,15.15
2023-04-09T12:55:11.671Z,14.67
2023-04-09T12:57:39.975Z,15.05
2023-04-09T13:00:07.992Z,15.05
2023-04-09T13:02:35.937Z,14.91
2023-04-09T13:05:03.191Z,15.01
2023-04-09T13:07:30.475Z,15.11
2023-04-09T13:09:57.907Z,14.96
2023-04-09T13:12:25.139Z,15.34
2023-04-09T13:14:54.439Z,15.01
2023-04-09T13:17:21.289Z,15.06
2023-04-09T13:19:48.105Z,15.05
2023-04-09T13:22:15.015Z,14.75
2023-04-09T13:24:43.216Z,14.70
2023-04-09T13:27:11.434Z,14.52
2023-04-09T13:29:38.869Z,14.29
2023-04-09T13:32:10.928Z,13.91
2023-04-09T13:34:39.432Z,14.00
2023-04-09T13:37:06.575Z,14.00
2023-04-09T13:39:33.488Z,14.00
2023-04-09T13:42:03.665Z,14.30
2023-04-09T13:44:35.204Z,14.35
2023-04-09T13:47:01.989Z,14.50
2023-04-09T13:49:30.357Z,14.54
2023-04-09T13:51:57.708Z,14.52
2023-04-09T13:54:24.404Z,14.50
2023-04-09T13:56:51.825Z,14.56
2023-04-09T13:59:18.629Z,14.45
2023-04-09T14:01:45.451Z,14.98
2023-04-09T14:04:12.348Z,14.40
2023-04-09T14:06:39.240Z,14.35
2023-04-09T14:09:05.911Z,14.20
2023-04-09T14:11:32.553Z,14.26
2023-04-09T14:13:59.374Z,14.11
2023-04-09T14:16:26.540Z,14.49
2023-04-09T14:18:53.424Z,14.31
2023-04-09T14:21:20.389Z,14.43
2023-04-09T14:23:47.512Z,14.27
2023-04-09T14:26:14.527Z,14.25
2023-04-09T14:28:41.510Z,14.13
2023-04-09T14:31:08.529Z,13.98
2023-04-09T14:33:35.265Z,13.77
2023-04-09T14:36:01.995Z,13.84
2023-04-09T14:38:28.739Z,13.74
2023-04-09T14:40:55.531Z,13.62
2023-04-09T14:43:22.620Z,13.54
2023-04-09T14:45:49.314Z,13.47
2023-04-09T14:48:16.223Z,13.52
2023-04-09T14:50:44.132Z,14.14
2023-04-09T14:53:11.008Z,14.16
2023-04-09T14:55:38.667Z,14.02
2023-04-09T14:58:07.309Z,14.11
2023-04-09T15:00:36.190Z,14.20
2023-04-09T15:05:30.796Z,13.66
2023-04-09T15:07:57.745Z,13.39
2023-04-09T15:10:24.441Z,13.40
2023-04-09T15:12:51.313Z,13.15
2023-04-09T15:15:18.036Z,13.32
2023-04-09T15:17:44.796Z,13.10
2023-04-09T15:20:11.949Z,13.14
2023-04-09T15:22:38.669Z,12.82
2023-04-09T15:25:05.848Z,12.68
2023-04-09T15:27:32.992Z,12.84
2023-04-09T15:29:59.907Z,12.90
2023-04-09T15:32:28.561Z,12.90
2023-04-09T15:34:55.355Z,12.98
2023-04-09T15:37:22.020Z,12.70
2023-04-09T15:39:48.689Z,12.69
2023-04-09T15:42:20.382Z,12.46
2023-04-09T15:44:49.482Z,12.52
2023-04-09T15:47:16.331Z,12.19
2023-04-09T15:49:43.082Z,12.25
2023-04-09T15:52:12.548Z,12.13
2023-04-09T15:54:39.261Z,12.16
2023-04-09T15:57:05.955Z,12.25
2023-04-09T15:59:32.986Z,12.11
2023-04-09T16:02:00.070Z,12.20
2023-04-09T16:04:27.645Z,12.12
2023-04-09T16:06:56.457Z,12.09
2023-04-09T16:09:23.761Z,11.82
2023-04-09T16:11:51.136Z,11.85
2023-04-09T16:14:18.028Z,11.93
2023-04-09T16:16:49.585Z,11.71
2023-04-09T16:19:21.272Z,11.81
2023-04-09T16:21:49.114Z,11.80
2023-04-09T16:24:16.043Z,11.60
2023-04-09T16:26:44.612Z,11.76
2023-04-09T16:29:12.647Z,11.80
2023-04-09T16:31:42.181Z,11.67
2023-04-09T16:34:09.172Z,11.77
2023-04-09T16:36:37.186Z,11.81
2023-04-09T16:39:04.747Z,11.72
2023-04-09T16:41:31.873Z,11.75
2023-04-09T16:43:58.593Z,11.64
2023-04-09T16:46:25.417Z,11.55
2023-04-09T16:48:52.469Z,11.53
2023-04-09T16:51:19.436Z,11.48
2023-04-09T16:53:46.196Z,11.50
2023-04-09T16:56:12.910Z,11.23
2023-04-09T16:58:39.840Z,11.17
2023-04-09T17:01:07.034Z,11.02
2023-04-09T17:03:33.901Z,11.07
2023-04-09T17:06:00.764Z,11.07
2023-04-09T17:08:27.425Z,10.88
2023-04-09T17:11:02.006Z,10.93
2023-04-09T17:13:29.972Z,10.90
2023-04-09T17:15:56.817Z,10.73
2023-04-09T17:18:23.992Z,10.63
2023-04-09T17:20:51.046Z,10.53
2023-04-09T17:23:17.920Z,10.48
2023-04-09T17:25:44.854Z,10.49
2023-04-09T17:28:11.936Z,10.56
2023-04-09T17:30:38.649Z,10.63
2023-04-09T17:33:05.594Z,10.34
2023-04-09T17:35:32.751Z,10.24
2023-04-09T17:38:01.142Z,10.22
2023-04-09T17:40:28.305Z,10.21
2023-04-09T17:42:56.137Z,9.92
2023-04-09T17:45:22.869Z,9.87
2023-04-09T17:47:51.207Z,9.87
2023-04-09T17:50:18.386Z,9.76
2023-04-09T17:52:45.142Z,9.63
2023-04-09T17:55:12.989Z,9.66
2023-04-09T17:57:41.037Z,9.56
2023-04-09T18:00:08.791Z,9.49
2023-04-09T18:02:35.930Z,9.55
2023-04-09T18:05:07.293Z,9.45
2023-04-09T18:07:34.516Z,9.39
2023-04-09T18:10:03.009Z,9.26
2023-04-09T18:12:30.156Z,9.18
2023-04-09T18:14:56.959Z,9.15
2023-04-09T18:17:23.824Z,9.22
2023-04-09T18:19:53.990Z,9.07
2023-04-09T18:22:20.711Z,9.01
2023-04-09T18:24:47.405Z,8.98
2023-04-09T18:27:14.085Z,9.05
2023-04-09T18:29:41.500Z,8.95
2023-04-09T18:32:08.176Z,9.04
2023-04-09T18:34:34.873Z,8.85
2023-04-09T18:37:01.717Z,8.80
2023-04-09T18:39:30.763Z,8.79
2023-04-09T18:41:58.075Z,8.76
2023-04-09T18:44:24.908Z,8.72
2023-04-09T18:46:52.322Z,8.69
2023-04-09T18:49:19.039Z,8.74
2023-04-09T18:51:45.697Z,8.62
2023-04-09T18:54:12.372Z,8.59
2023-04-09T18:56:39.124Z,8.51
2023-04-09T18:59:05.783Z,8.57
2023-04-09T19:01:32.586Z,8.67
2023-04-09T19:03:59.553Z,8.66
2023-04-09T19:06:27.899Z,8.48
2023-04-09T19:08:58.123Z,8.40
2023-04-09T19:11:25.963Z,8.35
2023-04-09T19:13:52.809Z,8.32
2023-04-09T19:16:20.828Z,8.26
2023-04-09T19:18:47.943Z,8.28
2023-04-09T19:21:14.666Z,8.24
2023-04-09T19:23:41.363Z,8.28
2023-04-09T19:26:08.099Z,8.14
2023-04-09T19:28:34.866Z,8.16
2023-04-09T19:31:03.415Z,8.17
2023-04-09T19:33:30.859Z,8.18
2023-04-09T19:35:57.626Z,7.96
2023-04-09T19:38:24.458Z,7.93
2023-04-09T19:40:51.094Z,7.98
2023-04-09T19:43:17.804Z,8.04
2023-04-09T19:45:44.645Z,8.02
2023-04-09T19:48:12.666Z,7.97
2023-04-09T19:50:40.959Z,7.95
2023-04-09T19:53:07.879Z,7.88
2023-04-09T19:55:35.042Z,7.95
2023-04-09T19:58:02.567Z,7.86
2023-04-09T20:00:29.551Z,7.88
2023-04-09T20:02:57.229Z,7.80
2023-04-09T20:05:24.501Z,7.81
2023-04-09T20:07:52.766Z,7.86
2023-04-09T20:10:19.887Z,7.77
2023-04-09T20:12:48.026Z,7.74
2023-04-09T20:15:15.372Z,7.56
2023-04-09T20:17:42.702Z,7.56
2023-04-09T20:20:09.908Z,7.44
2023-04-09T20:22:36.679Z,7.56
2023-04-09T20:25:03.415Z,7.55
2023-04-09T20:27:30.103Z,7.55
2023-04-09T20:29:56.753Z,7.37
2023-04-09T20:32:23.701Z,7.48
2023-04-09T20:34:50.447Z,7.42
2023-04-09T20:37:17.140Z,7.43
2023-04-09T20:39:43.922Z,7.36
2023-04-09T20:42:10.708Z,7.29
2023-04-09T20:44:38.284Z,7.33
2023-04-09T20:47:07.223Z,7.29
2023-04-09T20:49:33.973Z,7.26
2023-04-09T20:52:00.775Z,7.23
2023-04-09T20:54:28.098Z,7.18
2023-04-09T20:56:55.124Z,7.10
2023-04-09T20:59:21.963Z,7.18
2023-04-09T21:01:48.940Z,7.06
2023-04-09T21:04:16.100Z,7.06
2023-04-09T21:06:43.021Z,7.06
2023-04-09T21:09:09.721Z,7.05
2023-04-09T21:11:36.412Z,7.04
2023-04-09T21:14:04.143Z,7.00
2023-04-09T21:16:31.199Z,7.09
2023-04-09T21:18:58.455Z,7.05
2023-04-09T21:21:27.516Z,7.03
2023-04-09T21:23:54.288Z,6.94
2023-04-09T21:26:20.981Z,6.90
2023-04-09T21:28:50.577Z,6.99
2023-04-09T21:31:17.697Z,6.88
2023-04-09T21:33:44.444Z,6.99
2023-04-09T21:36:11.329Z,6.94
2023-04-09T21:38:38.179Z,6.91
2023-04-09T21:41:05.096Z,6.98
2023-04-09T21:43:31.766Z,6.89
2023-04-09T21:45:58.913Z,6.99
2023-04-09T21:48:26.509Z,7.04
2023-04-09T21:50:53.203Z,6.97
2023-04-09T21:53:19.955Z,6.89
2023-04-09T21:55:47.199Z,6.98
2023-04-09T21:58:13.900Z,6.99
2023-04-09T22:00:40.688Z,6.97
2023-04-09T22:03:07.699Z,6.95
2023-04-09T22:05:34.790Z,6.91
2023-04-09T22:08:01.446Z,6.90
2023-04-09T22:10:28.433Z,6.96
2023-04-09T22:12:55.724Z,7.07
2023-04-09T22:15:22.446Z,6.89
2023-04-09T22:17:49.293Z,6.96
2023-04-09T22:20:16.198Z,6.89
2023-04-09T22:22:43.096Z,6.97
2023-04-09T22:25:11.632Z,7.01
2023-04-09T22:27:38.883Z,6.96
2023-04-09T22:30:06.362Z,6.81
2023-04-09T22:32:36.031Z,7.00
2023-04-09T22:35:02.712Z,6.87
2023-04-09T22:37:29.342Z,6.79
2023-04-09T22:39:56.544Z,6.89
2023-04-09T22:42:25.337Z,6.88
2023-04-09T22:44:53.844Z,6.88
2023-04-09T22:47:20.603Z,6.82
2023-04-09T22:49:47.469Z,6.91
2023-04-09T22:52:14.195Z,6.79
2023-04-09T22:54:43.128Z,6.87
2023-04-09T22:57:09.825Z,6.79
2023-04-09T22:59:40.307Z,6.79
2023-04-09T23:02:08.272Z,6.84
2023-04-09T23:04:35.210Z,6.92
2023-04-09T23:07:02.534Z,6.79
2023-04-09T23:09:30.996Z,6.77
2023-04-09T23:11:57.942Z,6.77
2023-04-09T23:14:24.838Z,6.89
2023-04-09T23:16:51.681Z,6.89
2023-04-09T23:19:18.421Z,6.83
2023-04-09T23:21:45.225Z,6.87
2023-04-09T23:24:11.966Z,6.78
2023-04-09T23:26:38.592Z,6.74
2023-04-09T23:29:05.326Z,6.77
2023-04-09T23:31:32.182Z,6.76
2023-04-09T23:33:58.975Z,6.71
2023-04-09T23:36:26.157Z,6.69
2023-04-09T23:38:52.843Z,6.66
2023-04-09T23:41:19.514Z,6.65
2023-04-09T23:43:46.818Z,6.63
2023-04-09T23:46:13.604Z,6.64
2023-04-09T23:48:40.380Z,6.72
2023-04-09T23:51:07.125Z,6.66
2023-04-09T23:53:33.822Z,6.67
2023-04-09T23:56:00.722Z,6.54
2023-04-09T23:58:27.411Z,6.62
